createdAt,value
2022-10-25T00:04:05.135Z,94443.44
2022-10-25T00:09:07.545Z,94449.16
2022-10-25T00:14:10.103Z,94451.72
2022-10-25T00:19:12.166Z,94437.81
2022-10-25T00:24:15.506Z,94446.22
2022-10-25T00:29:17.899Z,94439.63
2022-10-25T00:34:20.002Z,94431.13
2022-10-25T00:39:22.155Z,94441.88
2022-10-25T00:44:36.835Z,94442.66
2022-10-25T00:49:38.863Z,94437.19
2022-10-25T00:54:45.043Z,94420.19
2022-10-25T00:59:47.598Z,94406.69
2022-10-25T01:04:50.190Z,94411.69
2022-10-25T01:09:52.221Z,94402.00
2022-10-25T01:14:54.819Z,94401.22
2022-10-25T01:20:27.040Z,94396.16
2022-10-25T01:26:19.985Z,94383.13
2022-10-25T01:31:30.229Z,94368.38
2022-10-25T01:36:50.388Z,94362.56
2022-10-25T01:42:03.683Z,94352.53
2022-10-25T01:47:21.002Z,94331.66
2022-10-25T01:52:24.607Z,94343.16
2022-10-25T01:57:41.645Z,94349.53
2022-10-25T02:02:53.455Z,94344.72
2022-10-25T02:08:05.264Z,94338.91
2022-10-25T02:13:22.317Z,94354.19
2022-10-25T02:18:27.800Z,94323.50
2022-10-25T02:23:30.335Z,94327.53
2022-10-25T02:28:33.260Z,94330.66
2022-10-25T02:33:35.385Z,94332.44
2022-10-25T02:38:37.802Z,94342.41
2022-10-25T02:43:40.025Z,94348.50
2022-10-25T02:48:42.539Z,94346.84
2022-10-25T02:53:44.740Z,94331.56
2022-10-25T02:58:48.350Z,94326.22
2022-10-25T03:03:50.781Z,94320.50
2022-10-25T03:08:52.828Z,94321.97
2022-10-25T03:13:54.854Z,94321.28
2022-10-25T03:18:58.443Z,94323.19
2022-10-25T03:24:00.441Z,94313.69
2022-10-25T03:29:02.499Z,94303.44
2022-10-25T03:34:04.376Z,94313.69
2022-10-25T03:39:06.313Z,94296.41
2022-10-25T03:44:08.278Z,94318.19
2022-10-25T03:49:10.280Z,94287.56
2022-10-25T03:54:12.180Z,94296.41
2022-10-25T03:59:14.075Z,94293.72
2022-10-25T04:04:15.998Z,94269.84
2022-10-25T04:09:17.927Z,94260.94
2022-10-25T04:14:20.126Z,94264.81
2022-10-25T04:19:22.102Z,94266.28
2022-10-25T04:24:24.033Z,94253.88
2022-10-25T04:29:26.009Z,94235.47
2022-10-25T04:34:28.118Z,94240.81
2022-10-25T04:39:30.086Z,94241.59
2022-10-25T04:44:32.094Z,94232.03
2022-10-25T04:49:33.990Z,94237.72
2022-10-25T04:54:35.898Z,94236.94
2022-10-25T04:59:37.839Z,94231.47
2022-10-25T05:04:39.783Z,94235.59
2022-10-25T05:09:45.159Z,94230.69
2022-10-25T05:14:49.527Z,94237.19
2022-10-25T05:19:51.603Z,94246.31
2022-10-25T05:24:53.660Z,94246.31
2022-10-25T05:29:55.571Z,94243.63
2022-10-25T05:34:57.558Z,94235.19
2022-10-25T05:39:59.452Z,94250.56
2022-10-25T05:45:01.569Z,94233.81
2022-10-25T05:50:03.730Z,94230.69
2022-10-25T05:55:06.082Z,94231.34
2022-10-25T06:00:08.322Z,94223.78
2022-10-25T06:05:10.298Z,94213.06
2022-10-25T06:10:12.582Z,94232.81
2022-10-25T06:15:14.691Z,94236.72
2022-10-25T06:20:16.721Z,94211.41
2022-10-25T06:25:18.824Z,94129.75
2022-10-25T06:30:21.912Z,94184.63
2022-10-25T06:35:23.956Z,94182.84
2022-10-25T06:40:26.145Z,94194.56
2022-10-25T06:45:28.177Z,94195.22
2022-10-25T06:50:30.334Z,94182.72
2022-10-25T06:55:32.229Z,94218.22
2022-10-25T07:00:34.495Z,94188.50
2022-10-25T07:05:37.438Z,94212.03
2022-10-25T07:10:40.191Z,94230.69
2022-10-25T07:15:42.299Z,94232.25
2022-10-25T07:20:48.860Z,94230.44
2022-10-25T07:25:50.824Z,94222.19
2022-10-25T07:30:54.374Z,94240.25
2022-10-25T07:36:09.883Z,94274.41
2022-10-25T07:41:13.883Z,94295.50
2022-10-25T07:46:15.983Z,94286.47
2022-10-25T07:51:18.365Z,94264.09
2022-10-25T07:56:23.360Z,94260.41
2022-10-25T08:01:27.531Z,94262.97
2022-10-25T08:06:29.490Z,94258.66
2022-10-25T08:11:31.421Z,94257.19
2022-10-25T08:16:33.398Z,94264.44
2022-10-25T08:21:35.533Z,94247.25
2022-10-25T08:26:37.533Z,94259.16
2022-10-25T08:31:39.395Z,94256.50
2022-10-25T08:36:41.586Z,94271.72
2022-10-25T08:41:50.556Z,94261.59
2022-10-25T08:46:56.475Z,94256.84
2022-10-25T08:51:59.951Z,94247.94
2022-10-25T08:57:26.554Z,94257.19
2022-10-25T09:02:37.549Z,94286.66
2022-10-25T09:07:54.091Z,94276.84
2022-10-25T09:18:47.771Z,94270.75
2022-10-25T09:24:01.547Z,94268.16
2022-10-25T09:29:06.833Z,94280.94
2022-10-25T09:34:10.833Z,94261.66
2022-10-25T09:39:23.187Z,94249.22
2022-10-25T09:44:34.374Z,94235.66
2022-10-25T09:50:04.069Z,94246.53
2022-10-25T09:55:24.776Z,94252.41
2022-10-25T10:00:26.833Z,94230.31
2022-10-25T10:05:29.249Z,94213.56
2022-10-25T10:10:33.899Z,94215.75
2022-10-25T10:15:41.910Z,94194.16
2022-10-25T10:20:56.631Z,94203.44
2022-10-25T10:26:03.034Z,94226.66
2022-10-25T10:31:06.526Z,94237.81
2022-10-25T10:36:29.301Z,94249.06
2022-10-25T10:41:31.608Z,94248.66
2022-10-25T10:46:33.954Z,94204.47
2022-10-25T10:51:43.956Z,94167.66
2022-10-25T10:56:56.790Z,94177.25
2022-10-25T11:02:12.317Z,94193.06
2022-10-25T11:07:29.321Z,94210.81
2022-10-25T11:12:31.577Z,94223.91
2022-10-25T11:17:37.711Z,94193.41
2022-10-25T11:22:48.537Z,94196.88
2022-10-25T11:28:38.640Z,94184.94
2022-10-25T11:34:03.850Z,94188.78
2022-10-25T11:40:00.431Z,94186.44
2022-10-25T11:45:11.972Z,94190.28
2022-10-25T11:50:27.014Z,94199.56
2022-10-25T11:55:56.306Z,94200.00
2022-10-25T12:01:00.353Z,94195.78
2022-10-25T12:06:30.762Z,94205.94
2022-10-25T12:11:42.142Z,94192.06
2022-10-25T12:16:44.543Z,94177.78
2022-10-25T12:21:56.781Z,94173.16
2022-10-25T12:27:01.566Z,94178.16
2022-10-25T12:32:09.538Z,94171.19
2022-10-25T12:37:19.872Z,94159.59
2022-10-25T12:42:23.072Z,94173.13
2022-10-25T12:47:31.270Z,94186.28
2022-10-25T12:52:37.156Z,94153.03
2022-10-25T12:57:56.886Z,94146.88
2022-10-25T13:03:32.750Z,94152.28
2022-10-25T13:08:34.584Z,94134.88
2022-10-25T13:13:56.727Z,94146.88
2022-10-25T13:19:42.790Z,94151.50
2022-10-25T13:24:47.304Z,94149.53
2022-10-25T13:30:07.564Z,94140.97
2022-10-25T13:35:22.278Z,94121.56
2022-10-25T13:40:26.704Z,94120.41
2022-10-25T13:45:39.567Z,94129.38
2022-10-25T13:50:52.254Z,94097.56
2022-10-25T13:55:59.254Z,94109.53
2022-10-25T14:01:16.320Z,94113.88
2022-10-25T14:06:30.536Z,94109.97
2022-10-25T14:11:32.422Z,94110.78
2022-10-25T14:16:52.992Z,94112.34
2022-10-25T14:21:55.649Z,94114.66
2022-10-25T14:27:00.182Z,94118.53
2022-10-25T14:32:12.522Z,94119.34
2022-10-25T14:37:15.161Z,94123.63
2022-10-25T14:42:18.192Z,94125.97
2022-10-25T14:47:31.414Z,94125.94
2022-10-25T14:52:33.357Z,94120.50
2022-10-25T14:57:36.471Z,94130.59
2022-10-25T15:02:41.950Z,94128.63
2022-10-25T15:07:47.101Z,94134.81
2022-10-25T15:12:52.398Z,94134.47
2022-10-25T15:17:54.345Z,94141.81
2022-10-25T15:23:05.352Z,94144.88
2022-10-25T15:28:25.570Z,94148.00
2022-10-25T15:33:32.294Z,94148.78
2022-10-25T15:39:06.274Z,94158.06
2022-10-25T15:43:57.752Z,94154.94
2022-10-25T15:49:01.517Z,94155.31
2022-10-25T15:54:03.487Z,94163.09
2022-10-25T15:59:05.442Z,94161.53
2022-10-25T16:04:08.589Z,94168.06
2022-10-25T16:09:10.980Z,94165.31
2022-10-25T16:14:20.199Z,94171.91
2022-10-25T16:19:22.378Z,94164.16
2022-10-25T16:24:24.514Z,94177.22
2022-10-25T16:29:26.586Z,94172.50
2022-10-25T16:34:28.577Z,94181.41
2022-10-25T16:39:30.734Z,94176.31
2022-10-25T16:44:32.638Z,94173.19
2022-10-25T16:49:34.747Z,94173.56
2022-10-25T16:54:36.789Z,94180.09
2022-10-25T16:59:38.923Z,94186.13
2022-10-25T17:04:41.090Z,94186.00
2022-10-25T17:09:43.136Z,94186.31
2022-10-25T17:14:45.226Z,94191.63
2022-10-25T17:19:47.336Z,94202.69
2022-10-25T17:24:49.318Z,94209.50
2022-10-25T17:29:51.201Z,94205.81
2022-10-25T17:34:53.963Z,94216.88
2022-10-25T17:39:55.838Z,94226.78
2022-10-25T17:44:57.849Z,94234.75
2022-10-25T17:50:01.870Z,94235.34
2022-10-25T17:55:04.161Z,94245.13
2022-10-25T18:00:06.949Z,94235.69
2022-10-25T18:05:20.318Z,94242.09
2022-10-25T18:10:23.113Z,94248.50
2022-10-25T18:15:25.055Z,94256.22
2022-10-25T18:20:27.158Z,94253.66
2022-10-25T18:25:29.078Z,94256.59
2022-10-25T18:30:31.087Z,94255.69
2022-10-25T18:35:33.070Z,94272.84
2022-10-25T18:40:35.657Z,94283.97
2022-10-25T18:45:37.772Z,94283.63
2022-10-25T18:50:42.520Z,94281.22
2022-10-25T18:55:48.645Z,94291.84
2022-10-25T19:00:50.633Z,94295.69
2022-10-25T19:05:52.807Z,94302.88
2022-10-25T19:10:54.815Z,94311.66
2022-10-25T19:15:58.186Z,94323.00
2022-10-25T19:21:05.138Z,94324.44
2022-10-25T19:26:09.641Z,94322.03
2022-10-25T19:31:16.709Z,94334.22
2022-10-25T19:36:20.133Z,94330.25
2022-10-25T19:41:23.253Z,94340.03
2022-10-25T19:46:25.314Z,94344.13
2022-10-25T19:51:27.472Z,94338.28
2022-10-25T19:56:29.459Z,94346.66
2022-10-25T20:01:32.087Z,94351.19
2022-10-25T20:06:35.291Z,94343.38
2022-10-25T20:11:37.201Z,94353.56
2022-10-25T20:16:40.383Z,94349.16
2022-10-25T20:21:42.482Z,94357.06
2022-10-25T20:26:49.754Z,94358.56
2022-10-25T20:31:52.566Z,94366.97
2022-10-25T20:36:54.545Z,94366.97
2022-10-25T20:41:56.686Z,94363.44
2022-10-25T20:46:58.607Z,94370.78
2022-10-25T20:52:01.129Z,94377.28
2022-10-25T20:57:03.339Z,94367.66
2022-10-25T21:02:05.368Z,94355.78
2022-10-25T21:07:07.603Z,94370.34
2022-10-25T21:12:09.499Z,94365.69
2022-10-25T21:17:11.725Z,94369.84
2022-10-25T21:22:13.591Z,94364.47
2022-10-25T21:27:15.579Z,94374.09
2022-10-25T21:32:17.512Z,94373.75
2022-10-25T21:37:19.514Z,94372.53
2022-10-25T21:42:21.444Z,94383.22
2022-10-25T21:47:23.367Z,94387.38
2022-10-25T21:52:25.344Z,94382.59
2022-10-25T21:57:27.359Z,94386.06
2022-10-25T22:02:29.550Z,94391.81
2022-10-25T22:07:32.088Z,94390.66
2022-10-25T22:12:34.352Z,94399.44
2022-10-25T22:17:36.539Z,94401.00
2022-10-25T22:22:38.409Z,94400.13
2022-10-25T22:27:40.428Z,94405.00
2022-10-25T22:32:42.487Z,94411.41
2022-10-25T22:37:44.406Z,94418.44
2022-10-25T22:42:46.242Z,94418.53
2022-10-25T22:47:51.672Z,94424.31
2022-10-25T22:52:53.671Z,94418.06
2022-10-25T22:57:56.178Z,94409.81
2022-10-25T23:02:58.123Z,94412.44
2022-10-25T23:08:00.102Z,94410.00
2022-10-25T23:13:02.120Z,94408.19
2022-10-25T23:18:04.003Z,94405.53
2022-10-25T23:23:06.108Z,94407.09
2022-10-25T23:28:08.143Z,94403.69
2022-10-25T23:33:11.768Z,94409.78
2022-10-25T23:38:14.039Z,94392.97
2022-10-25T23:43:15.944Z,94407.88
2022-10-25T23:48:17.939Z,94396.25
2022-10-25T23:53:19.952Z,94414.16
2022-10-25T23:58:22.237Z,94420.94
